createdAt,value
2022-10-09T00:01:38.649Z,16.60
2022-10-09T00:04:01.234Z,16.02
2022-10-09T00:06:32.387Z,16.40
2022-10-09T00:08:56.123Z,15.03
2022-10-09T00:11:22.274Z,15.32
2022-10-09T00:13:45.659Z,15.43
2022-10-09T00:16:10.822Z,15.23
2022-10-09T00:18:33.826Z,15.73
2022-10-09T00:20:56.360Z,15.67
2022-10-09T00:23:19.173Z,15.63
2022-10-09T00:25:53.570Z,15.63
2022-10-09T00:28:16.262Z,15.75
2022-10-09T00:30:39.458Z,15.80
2022-10-09T00:33:02.079Z,15.07
2022-10-09T00:35:24.677Z,15.63
2022-10-09T00:37:48.724Z,15.52
2022-10-09T00:40:11.630Z,14.20
2022-10-09T00:42:34.264Z,15.07
2022-10-09T00:45:00.271Z,15.10
2022-10-09T00:47:34.806Z,14.70
2022-10-09T00:50:12.075Z,15.02
2022-10-09T00:52:34.665Z,14.30
2022-10-09T00:54:59.226Z,14.40
2022-10-09T00:57:21.934Z,14.50
2022-10-09T00:59:45.192Z,14.57
2022-10-09T01:02:07.950Z,15.07
2022-10-09T01:04:31.083Z,15.05
2022-10-09T01:07:18.230Z,14.85
2022-10-09T01:10:05.169Z,15.40
2022-10-09T01:12:58.580Z,15.70
2022-10-09T01:15:53.676Z,16.40
2022-10-09T01:18:29.046Z,15.65
2022-10-09T01:20:56.686Z,16.38
2022-10-09T01:23:35.817Z,16.87
2022-10-09T01:26:13.298Z,16.48
2022-10-09T01:28:38.477Z,16.77
2022-10-09T01:31:04.606Z,17.08
2022-10-09T01:33:30.516Z,17.40
2022-10-09T01:35:53.721Z,17.57
2022-10-09T01:38:17.907Z,17.83
2022-10-09T01:40:40.475Z,18.17
2022-10-09T01:43:03.187Z,17.77
2022-10-09T01:45:25.831Z,18.88
2022-10-09T01:47:48.451Z,18.77
2022-10-09T01:50:27.421Z,19.08
2022-10-09T01:52:53.801Z,20.52
2022-10-09T01:55:34.329Z,20.00
2022-10-09T01:58:00.058Z,21.13
2022-10-09T02:00:23.072Z,20.43
2022-10-09T02:02:46.735Z,20.45
2022-10-09T02:05:22.697Z,20.58
2022-10-09T02:07:46.012Z,20.77
2022-10-09T02:10:10.144Z,20.90
2022-10-09T02:12:38.657Z,20.77
2022-10-09T02:15:01.121Z,20.63
2022-10-09T02:17:29.332Z,21.48
2022-10-09T02:19:56.992Z,21.60
2022-10-09T02:22:25.080Z,22.45
2022-10-09T02:24:47.956Z,22.60
2022-10-09T02:27:12.466Z,23.20
2022-10-09T02:29:35.596Z,24.80
2022-10-09T02:31:58.205Z,23.73
2022-10-09T02:34:21.303Z,24.15
2022-10-09T02:36:48.626Z,23.20
2022-10-09T02:39:11.251Z,24.13
2022-10-09T02:41:34.112Z,24.00
2022-10-09T02:43:56.733Z,23.55
2022-10-09T02:46:19.676Z,24.08
2022-10-09T02:48:42.369Z,25.00
2022-10-09T02:51:05.040Z,25.70
2022-10-09T02:53:27.925Z,25.45
2022-10-09T02:55:50.624Z,24.92
2022-10-09T02:58:14.981Z,24.45
2022-10-09T03:00:38.374Z,24.73
2022-10-09T03:03:00.931Z,26.35
2022-10-09T03:05:23.516Z,26.30
2022-10-09T03:07:51.306Z,25.27
2022-10-09T03:10:14.076Z,26.48
2022-10-09T03:12:36.511Z,26.13
2022-10-09T03:14:59.036Z,26.63
2022-10-09T03:17:21.576Z,26.40
2022-10-09T03:19:45.905Z,26.02
2022-10-09T03:22:08.404Z,27.90
2022-10-09T03:24:31.029Z,27.93
2022-10-09T03:26:53.626Z,30.33
2022-10-09T03:29:16.058Z,31.52
2022-10-09T03:31:54.085Z,30.65
2022-10-09T03:34:16.877Z,28.25
2022-10-09T03:36:40.093Z,27.83
2022-10-09T03:39:02.607Z,28.30
2022-10-09T03:41:25.119Z,27.25
2022-10-09T03:43:47.736Z,26.48
2022-10-09T03:46:11.285Z,26.70
2022-10-09T03:48:34.821Z,26.33
2022-10-09T03:50:57.337Z,26.77
2022-10-09T03:53:19.878Z,27.05
2022-10-09T03:55:43.161Z,26.13
2022-10-09T03:58:06.185Z,27.85
2022-10-09T04:00:28.861Z,28.07
2022-10-09T04:02:51.829Z,27.35
2022-10-09T04:05:14.808Z,27.38
2022-10-09T04:07:37.384Z,27.92
2022-10-09T04:10:01.413Z,29.13
2022-10-09T04:12:24.280Z,27.53
2022-10-09T04:14:46.870Z,27.33
2022-10-09T04:17:09.659Z,26.95
2022-10-09T04:19:34.858Z,26.92
2022-10-09T04:21:57.631Z,27.58
2022-10-09T04:24:20.092Z,26.47
2022-10-09T04:26:42.677Z,26.30
2022-10-09T04:29:05.989Z,25.42
2022-10-09T04:31:28.624Z,26.02
2022-10-09T04:33:51.195Z,26.83
2022-10-09T04:36:13.793Z,25.33
2022-10-09T04:38:36.382Z,25.55
2022-10-09T04:41:05.392Z,25.30
2022-10-09T04:43:28.865Z,25.40
2022-10-09T04:45:51.444Z,27.40
2022-10-09T04:48:14.039Z,24.33
2022-10-09T04:50:39.095Z,26.70
2022-10-09T04:53:01.613Z,26.08
2022-10-09T04:55:24.132Z,26.48
2022-10-09T04:57:46.993Z,26.40
2022-10-09T05:00:10.275Z,27.17
2022-10-09T05:02:32.926Z,25.90
2022-10-09T05:04:57.368Z,26.10
2022-10-09T05:07:19.980Z,27.27
2022-10-09T05:09:42.679Z,25.55
2022-10-09T05:12:05.293Z,25.23
2022-10-09T05:14:27.799Z,26.42
2022-10-09T05:17:13.068Z,26.27
2022-10-09T05:19:36.713Z,24.92
2022-10-09T05:22:00.937Z,24.88
2022-10-09T05:24:23.429Z,24.17
2022-10-09T05:26:45.960Z,24.85
2022-10-09T05:29:08.667Z,24.10
2022-10-09T05:31:31.902Z,23.08
2022-10-09T05:33:56.285Z,24.42
2022-10-09T05:36:19.714Z,23.37
2022-10-09T05:38:42.513Z,23.17
2022-10-09T05:41:07.693Z,22.27
2022-10-09T05:43:33.789Z,22.35
2022-10-09T05:45:56.394Z,22.30
2022-10-09T05:48:19.987Z,21.60
2022-10-09T05:50:42.656Z,22.65
2022-10-09T05:53:05.205Z,21.95
2022-10-09T05:55:28.251Z,21.90
2022-10-09T05:57:53.011Z,21.20
2022-10-09T06:00:15.535Z,21.23
2022-10-09T06:02:38.100Z,20.88
2022-10-09T06:05:00.708Z,22.17
2022-10-09T06:07:23.223Z,21.52
2022-10-09T06:09:46.344Z,20.67
2022-10-09T06:12:09.052Z,20.67
2022-10-09T06:14:31.774Z,20.67
2022-10-09T06:16:54.382Z,20.45
2022-10-09T06:19:19.361Z,21.55
2022-10-09T06:21:42.667Z,21.42
2022-10-09T06:24:06.786Z,21.80
2022-10-09T06:26:30.585Z,22.20
2022-10-09T06:28:53.223Z,22.35
2022-10-09T06:31:21.126Z,21.88
2022-10-09T06:33:45.105Z,21.15
2022-10-09T06:36:15.963Z,21.43
2022-10-09T06:38:39.356Z,20.27
2022-10-09T06:41:06.769Z,20.35
2022-10-09T06:43:29.604Z,20.08
2022-10-09T06:45:52.089Z,21.05
2022-10-09T06:48:14.692Z,20.40
2022-10-09T06:50:37.549Z,20.70
2022-10-09T06:53:00.247Z,20.95
2022-10-09T06:55:27.864Z,18.83
2022-10-09T06:57:51.121Z,20.25
2022-10-09T07:00:14.332Z,19.37
2022-10-09T07:02:41.802Z,20.17
2022-10-09T07:05:06.924Z,19.27
2022-10-09T07:07:29.466Z,19.52
2022-10-09T07:09:54.686Z,18.85
2022-10-09T07:12:17.396Z,18.70
2022-10-09T07:14:39.855Z,18.88
2022-10-09T07:17:43.424Z,18.88
2022-10-09T07:20:06.757Z,18.90
2022-10-09T07:22:29.955Z,19.08
2022-10-09T07:24:52.899Z,18.13
2022-10-09T07:27:15.534Z,18.65
2022-10-09T07:29:38.591Z,18.23
2022-10-09T07:32:01.158Z,17.63
2022-10-09T07:34:23.838Z,18.40
2022-10-09T07:36:46.413Z,17.40
2022-10-09T07:39:09.104Z,16.45
2022-10-09T07:41:31.616Z,16.63
2022-10-09T07:43:54.507Z,17.17
2022-10-09T07:46:19.719Z,16.27
2022-10-09T07:48:43.111Z,16.53
2022-10-09T07:51:16.661Z,15.95
2022-10-09T07:53:39.376Z,15.77
2022-10-09T07:56:01.833Z,15.20
2022-10-09T07:58:25.448Z,15.70
2022-10-09T08:00:47.893Z,14.43
2022-10-09T08:03:10.742Z,15.05
2022-10-09T08:05:33.333Z,14.95
2022-10-09T08:07:56.114Z,14.63
2022-10-09T08:10:18.660Z,14.43
2022-10-09T08:12:41.197Z,13.80
2022-10-09T08:15:04.024Z,13.73
2022-10-09T08:17:26.615Z,13.82
2022-10-09T08:19:49.180Z,12.80
2022-10-09T08:22:14.298Z,13.30
2022-10-09T08:24:36.806Z,13.10
2022-10-09T08:26:59.752Z,14.00
2022-10-09T08:29:22.236Z,13.23
2022-10-09T08:31:44.794Z,12.63
2022-10-09T08:34:07.435Z,12.30
2022-10-09T08:36:30.869Z,12.60
2022-10-09T08:38:53.507Z,12.52
2022-10-09T08:41:18.829Z,11.57
2022-10-09T08:43:47.034Z,11.27
2022-10-09T08:46:41.535Z,12.10
2022-10-09T08:49:05.277Z,10.70
2022-10-09T08:51:33.181Z,10.82
2022-10-09T08:54:04.477Z,10.95
2022-10-09T08:56:27.702Z,10.10
2022-10-09T08:58:50.292Z,10.48
2022-10-09T09:01:16.886Z,10.03
2022-10-09T09:03:57.627Z,9.55
2022-10-09T09:07:04.471Z,9.30
2022-10-09T09:09:45.500Z,9.23
2022-10-09T09:12:48.984Z,9.02
2022-10-09T09:15:38.331Z,8.97
2022-10-09T09:18:25.556Z,8.80
2022-10-09T09:20:48.209Z,8.80
2022-10-09T09:23:15.336Z,9.23
2022-10-09T09:25:42.050Z,9.00
2022-10-09T09:28:20.575Z,9.03
2022-10-09T09:30:51.909Z,9.10
2022-10-09T09:33:18.928Z,8.25
2022-10-09T09:35:59.633Z,8.32
2022-10-09T09:38:22.284Z,8.48
2022-10-09T09:40:47.188Z,8.27
2022-10-09T09:43:22.500Z,8.10
2022-10-09T09:45:46.621Z,7.88
2022-10-09T09:48:37.210Z,7.90
2022-10-09T09:51:23.599Z,7.28
2022-10-09T09:53:50.058Z,7.27
2022-10-09T09:56:12.628Z,7.07
2022-10-09T09:58:50.007Z,7.45
2022-10-09T10:01:25.352Z,7.30
2022-10-09T10:03:50.760Z,7.65
2022-10-09T10:06:29.079Z,7.17
2022-10-09T10:09:24.622Z,7.65
2022-10-09T10:12:00.529Z,7.60
2022-10-09T10:14:23.583Z,7.75
2022-10-09T10:16:49.896Z,7.53
2022-10-09T10:19:25.077Z,7.00
2022-10-09T10:21:54.852Z,6.85
2022-10-09T10:24:22.946Z,7.25
2022-10-09T10:26:53.027Z,7.07
2022-10-09T10:29:17.563Z,7.50
2022-10-09T10:31:58.439Z,7.00
2022-10-09T10:34:27.799Z,6.95
2022-10-09T10:37:01.112Z,7.68
2022-10-09T10:39:39.858Z,6.82
2022-10-09T10:42:06.913Z,7.00
2022-10-09T10:44:37.260Z,7.23
2022-10-09T10:47:06.651Z,7.28
2022-10-09T10:49:33.486Z,7.40
2022-10-09T10:52:06.620Z,6.90
2022-10-09T10:54:38.087Z,6.60
2022-10-09T10:57:29.686Z,7.00
2022-10-09T11:00:11.675Z,6.68
2022-10-09T11:02:49.500Z,8.13
2022-10-09T11:05:27.029Z,6.47
2022-10-09T11:08:13.935Z,6.43
2022-10-09T11:10:54.193Z,6.70
2022-10-09T11:13:25.816Z,7.05
2022-10-09T11:15:54.021Z,6.30
2022-10-09T11:18:33.077Z,5.93
2022-10-09T11:21:04.329Z,5.80
2022-10-09T11:23:48.013Z,6.10
2022-10-09T11:26:22.896Z,6.65
2022-10-09T11:28:50.619Z,6.13
2022-10-09T11:31:22.158Z,5.93
2022-10-09T11:33:48.727Z,6.20
2022-10-09T11:36:18.555Z,5.43
2022-10-09T11:38:46.279Z,5.60
2022-10-09T11:41:09.511Z,5.38
2022-10-09T11:43:38.315Z,5.60
2022-10-09T11:46:29.351Z,5.20
2022-10-09T11:49:21.543Z,5.30
2022-10-09T11:52:08.271Z,6.15
2022-10-09T11:54:31.175Z,6.25
2022-10-09T11:56:59.793Z,7.00
2022-10-09T11:59:28.780Z,5.53
2022-10-09T12:01:51.682Z,6.00
2022-10-09T12:04:14.193Z,6.07
2022-10-09T12:06:53.115Z,5.55
2022-10-09T12:09:48.414Z,5.65
2022-10-09T12:12:16.829Z,6.15
2022-10-09T12:14:39.435Z,6.57
2022-10-09T12:17:14.200Z,6.82
2022-10-09T12:19:40.106Z,7.65
2022-10-09T12:22:07.664Z,8.80
2022-10-09T12:24:39.212Z,8.63
2022-10-09T12:27:03.341Z,8.90
2022-10-09T12:29:34.854Z,8.23
2022-10-09T12:32:05.879Z,8.23
2022-10-09T12:34:52.096Z,8.23
2022-10-09T12:37:30.687Z,7.75
2022-10-09T12:39:53.287Z,8.30
2022-10-09T12:42:25.200Z,8.43
2022-10-09T12:44:50.637Z,5.55
2022-10-09T12:47:21.887Z,5.32
2022-10-09T12:49:55.584Z,4.20
2022-10-09T12:52:18.374Z,4.00
2022-10-09T12:54:44.312Z,4.28
2022-10-09T12:57:14.120Z,5.20
2022-10-09T12:59:37.567Z,5.63
2022-10-09T13:02:00.554Z,6.00
2022-10-09T13:04:27.767Z,9.23
2022-10-09T13:06:52.123Z,9.30
2022-10-09T13:09:25.096Z,9.05
2022-10-09T13:12:00.109Z,9.48
2022-10-09T13:14:35.634Z,9.80
2022-10-09T13:16:58.278Z,9.17
2022-10-09T13:19:27.327Z,9.82
2022-10-09T13:22:26.809Z,10.18
2022-10-09T13:24:55.553Z,9.50
2022-10-09T13:27:19.668Z,9.55
2022-10-09T13:29:43.377Z,10.13
2022-10-09T13:32:09.028Z,9.43
2022-10-09T13:34:31.680Z,9.77
2022-10-09T13:36:54.288Z,9.45
2022-10-09T13:39:17.190Z,9.85
2022-10-09T13:41:39.822Z,9.60
2022-10-09T13:44:02.478Z,9.40
2022-10-09T13:46:25.363Z,10.10
2022-10-09T13:48:48.001Z,9.50
2022-10-09T13:51:10.979Z,9.73
2022-10-09T13:53:34.117Z,9.33
2022-10-09T13:56:00.762Z,9.43
2022-10-09T13:58:23.921Z,9.77
2022-10-09T14:00:46.834Z,9.73
2022-10-09T14:03:09.841Z,9.63
2022-10-09T14:05:32.329Z,9.93
2022-10-09T14:07:55.504Z,9.27
2022-10-09T14:10:23.004Z,9.48
2022-10-09T14:12:46.798Z,9.90
2022-10-09T14:15:09.869Z,10.02
2022-10-09T14:17:32.714Z,10.03
2022-10-09T14:19:55.524Z,9.50
2022-10-09T14:22:18.148Z,9.70
2022-10-09T14:24:41.067Z,9.20
2022-10-09T14:27:03.686Z,9.65
2022-10-09T14:29:26.254Z,9.40
2022-10-09T14:31:51.828Z,9.55
2022-10-09T14:34:14.882Z,9.50
2022-10-09T14:36:37.488Z,9.48
2022-10-09T14:39:03.727Z,9.40
2022-10-09T14:41:26.499Z,9.67
2022-10-09T14:43:57.006Z,9.10
2022-10-09T14:46:19.634Z,10.32
2022-10-09T14:48:42.677Z,9.63
2022-10-09T14:51:07.813Z,9.93
2022-10-09T14:53:30.272Z,9.80
2022-10-09T14:55:52.897Z,9.63
2022-10-09T14:58:15.346Z,10.13
2022-10-09T15:00:37.987Z,9.88
2022-10-09T15:03:00.532Z,9.07
2022-10-09T15:05:23.264Z,9.30
2022-10-09T15:07:45.864Z,9.80
2022-10-09T15:10:08.797Z,10.23
2022-10-09T15:12:31.357Z,10.23
2022-10-09T15:14:54.106Z,9.88
2022-10-09T15:17:16.622Z,9.63
2022-10-09T15:19:40.532Z,10.07
2022-10-09T15:22:03.690Z,10.00
2022-10-09T15:24:26.207Z,9.98
2022-10-09T15:26:48.674Z,10.10
2022-10-09T15:29:12.151Z,10.43
2022-10-09T15:31:37.629Z,9.85
2022-10-09T15:34:03.472Z,10.15
2022-10-09T15:36:26.244Z,9.73
2022-10-09T15:38:50.214Z,10.32
2022-10-09T15:41:25.060Z,10.87
2022-10-09T15:43:48.408Z,11.57
2022-10-09T15:46:10.954Z,10.95
2022-10-09T15:48:33.633Z,10.90
2022-10-09T15:50:56.499Z,11.07
2022-10-09T15:53:22.962Z,10.90
2022-10-09T15:55:47.347Z,11.20
2022-10-09T15:58:10.687Z,11.73
2022-10-09T16:00:38.518Z,11.00
2022-10-09T16:03:01.407Z,11.30
2022-10-09T16:05:23.956Z,11.17
2022-10-09T16:07:47.365Z,11.10
2022-10-09T16:10:10.741Z,11.63
2022-10-09T16:12:33.584Z,13.90
2022-10-09T16:14:56.150Z,13.02
2022-10-09T16:17:18.731Z,14.40
2022-10-09T16:19:41.640Z,14.40
2022-10-09T16:22:05.164Z,14.13
2022-10-09T16:24:27.617Z,13.18
2022-10-09T16:26:51.073Z,14.05
2022-10-09T16:29:13.569Z,13.63
2022-10-09T16:31:36.952Z,13.82
2022-10-09T16:33:59.455Z,14.10
2022-10-09T16:36:22.415Z,13.70
2022-10-09T16:38:45.441Z,12.10
2022-10-09T16:41:14.751Z,11.87
2022-10-09T16:43:38.527Z,12.70
2022-10-09T16:46:32.276Z,13.23
2022-10-09T16:48:57.415Z,12.23
2022-10-09T16:51:23.917Z,12.82
2022-10-09T16:53:53.039Z,12.40
2022-10-09T16:56:19.895Z,11.07
2022-10-09T16:58:43.324Z,12.20
2022-10-09T17:01:09.830Z,12.13
2022-10-09T17:03:33.016Z,13.55
2022-10-09T17:05:55.705Z,23.73
2022-10-09T17:08:18.241Z,18.08
2022-10-09T17:10:42.243Z,19.42
2022-10-09T17:13:04.819Z,20.48
2022-10-09T17:15:27.726Z,21.30
2022-10-09T17:17:50.777Z,19.47
2022-10-09T17:20:13.994Z,17.35
2022-10-09T17:22:36.770Z,16.70
2022-10-09T17:24:59.438Z,17.13
2022-10-09T17:27:22.143Z,16.20
2022-10-09T17:29:44.679Z,15.37
2022-10-09T17:32:09.265Z,15.77
2022-10-09T17:34:31.831Z,15.55
2022-10-09T17:36:54.568Z,15.60
2022-10-09T17:39:18.332Z,15.27
2022-10-09T17:41:41.316Z,15.07
2022-10-09T17:44:04.675Z,14.05
2022-10-09T17:46:28.870Z,14.98
2022-10-09T17:48:56.135Z,14.30
2022-10-09T17:51:32.539Z,13.52
2022-10-09T17:56:26.097Z,13.15
2022-10-09T17:59:09.555Z,12.65
2022-10-09T18:01:32.533Z,11.48
2022-10-09T18:03:55.192Z,11.75
2022-10-09T18:06:19.924Z,11.57
2022-10-09T18:08:43.121Z,11.18
2022-10-09T18:11:09.039Z,10.95
2022-10-09T18:13:32.135Z,10.75
2022-10-09T18:15:54.771Z,10.05
2022-10-09T18:18:18.936Z,10.63
2022-10-09T18:20:41.780Z,10.23
2022-10-09T18:23:05.299Z,9.73
2022-10-09T18:25:27.804Z,10.07
2022-10-09T18:27:50.797Z,9.77
2022-10-09T18:30:14.012Z,9.77
2022-10-09T18:32:36.845Z,9.43
2022-10-09T18:34:59.458Z,9.57
2022-10-09T18:37:22.178Z,9.90
2022-10-09T18:39:45.228Z,10.02
2022-10-09T18:42:08.135Z,9.70
2022-10-09T18:44:33.978Z,10.73
2022-10-09T18:46:59.045Z,11.57
2022-10-09T18:49:29.360Z,12.27
2022-10-09T18:51:52.437Z,12.10
2022-10-09T18:54:18.296Z,11.97
2022-10-09T18:56:41.532Z,11.10
2022-10-09T18:59:08.736Z,11.38
2022-10-09T19:01:31.388Z,11.10
2022-10-09T19:03:54.079Z,11.27
2022-10-09T19:06:17.634Z,11.43
2022-10-09T19:08:40.221Z,10.25
2022-10-09T19:11:03.586Z,10.13
2022-10-09T19:13:26.834Z,10.27
2022-10-09T19:15:58.700Z,10.10
2022-10-09T19:18:22.292Z,10.30
2022-10-09T19:20:44.972Z,10.32
2022-10-09T19:23:08.522Z,9.50
2022-10-09T19:25:31.906Z,9.43
2022-10-09T19:27:54.800Z,9.93
2022-10-09T19:30:17.494Z,9.53
2022-10-09T19:32:40.015Z,9.38
2022-10-09T19:35:02.849Z,9.52
2022-10-09T19:37:28.918Z,9.68
2022-10-09T19:39:52.736Z,10.05
2022-10-09T19:42:16.627Z,9.60
2022-10-09T19:44:42.138Z,10.10
2022-10-09T19:47:05.115Z,10.05
2022-10-09T19:49:31.655Z,9.10
2022-10-09T19:51:54.690Z,8.65
2022-10-09T19:54:18.176Z,8.93
2022-10-09T19:56:41.069Z,9.60
2022-10-09T19:59:07.969Z,9.13
2022-10-09T20:01:32.832Z,9.45
2022-10-09T20:03:57.145Z,8.70
2022-10-09T20:06:19.682Z,8.97
2022-10-09T20:08:43.865Z,9.13
2022-10-09T20:11:07.499Z,8.57
2022-10-09T20:13:34.838Z,9.30
2022-10-09T20:15:59.915Z,9.07
2022-10-09T20:18:23.706Z,8.53
2022-10-09T20:20:48.107Z,8.65
2022-10-09T20:23:10.637Z,8.77
2022-10-09T20:25:34.041Z,9.10
2022-10-09T20:27:56.563Z,9.30
2022-10-09T20:30:19.112Z,8.60
2022-10-09T20:32:42.279Z,8.50
2022-10-09T20:35:05.400Z,8.07
2022-10-09T20:37:28.309Z,7.28
2022-10-09T20:39:51.133Z,7.00
2022-10-09T20:42:14.122Z,7.10
2022-10-09T20:44:36.881Z,7.22
2022-10-09T20:46:59.682Z,7.07
2022-10-09T20:49:23.379Z,6.45
2022-10-09T20:51:45.909Z,6.40
2022-10-09T20:54:13.800Z,6.67
2022-10-09T20:56:36.775Z,5.90
2022-10-09T20:59:00.793Z,6.13
2022-10-09T21:01:24.597Z,5.88
2022-10-09T21:03:47.695Z,5.75
2022-10-09T21:06:12.996Z,5.90
2022-10-09T21:08:36.107Z,5.35
2022-10-09T21:10:58.890Z,5.60
2022-10-09T21:13:21.513Z,6.15
2022-10-09T21:15:46.443Z,6.40
2022-10-09T21:18:09.148Z,6.17
2022-10-09T21:20:31.583Z,5.97
2022-10-09T21:22:54.105Z,6.40
2022-10-09T21:25:16.621Z,6.72
2022-10-09T21:27:39.199Z,6.13
2022-10-09T21:30:01.844Z,6.40
2022-10-09T21:32:24.847Z,5.95
2022-10-09T21:34:47.529Z,6.28
2022-10-09T21:37:26.034Z,5.90
2022-10-09T21:39:48.900Z,5.82
2022-10-09T21:42:11.446Z,5.40
2022-10-09T21:44:34.952Z,5.30
2022-10-09T21:46:57.530Z,5.15
2022-10-09T21:49:25.800Z,4.93
2022-10-09T21:51:48.763Z,4.32
2022-10-09T21:54:11.320Z,4.90
2022-10-09T21:56:33.959Z,4.57
2022-10-09T21:58:57.224Z,4.22
2022-10-09T22:01:19.835Z,3.92
2022-10-09T22:03:42.585Z,4.20
2022-10-09T22:06:17.754Z,3.80
2022-10-09T22:08:42.483Z,3.90
2022-10-09T22:11:06.932Z,4.03
2022-10-09T22:13:29.405Z,4.38
2022-10-09T22:15:52.277Z,4.00
2022-10-09T22:18:15.168Z,4.13
2022-10-09T22:20:50.106Z,3.63
2022-10-09T22:23:14.159Z,4.00
2022-10-09T22:25:37.608Z,4.10
2022-10-09T22:28:00.170Z,3.83
2022-10-09T22:30:22.715Z,3.73
2022-10-09T22:32:45.215Z,3.83
2022-10-09T22:35:08.141Z,4.00
2022-10-09T22:37:30.817Z,3.78
2022-10-09T22:39:53.498Z,4.22
2022-10-09T22:42:16.184Z,3.80
2022-10-09T22:44:38.993Z,3.30
2022-10-09T22:47:01.576Z,3.70
2022-10-09T22:49:24.073Z,3.70
2022-10-09T22:51:46.615Z,3.65
2022-10-09T22:54:10.777Z,3.40
2022-10-09T22:56:36.537Z,3.10
2022-10-09T22:58:59.246Z,3.40
2022-10-09T23:01:34.902Z,3.55
2022-10-09T23:04:03.410Z,3.03
2022-10-09T23:06:26.235Z,2.97
2022-10-09T23:08:49.302Z,3.28
2022-10-09T23:11:13.636Z,3.10
2022-10-09T23:13:37.027Z,3.03
2022-10-09T23:16:00.959Z,3.10
2022-10-09T23:18:23.571Z,3.10
2022-10-09T23:20:46.262Z,2.90
2022-10-09T23:23:08.801Z,3.20
2022-10-09T23:25:31.441Z,2.80
2022-10-09T23:27:54.169Z,2.90
2022-10-09T23:30:16.692Z,2.70
2022-10-09T23:32:39.277Z,3.00
2022-10-09T23:35:01.800Z,2.70
2022-10-09T23:37:24.442Z,2.88
2022-10-09T23:39:47.062Z,3.38
2022-10-09T23:42:09.610Z,3.00
2022-10-09T23:44:32.034Z,3.03
2022-10-09T23:46:54.819Z,2.88
2022-10-09T23:49:18.479Z,3.17
2022-10-09T23:51:41.001Z,3.17
2022-10-09T23:54:03.662Z,3.00
2022-10-09T23:56:31.772Z,3.05
2022-10-09T23:58:55.711Z,3.05
